TVF1A LFPO-EHAM
Flight info
| Callsign | TVF1A |
|---|---|
| Flight time | N/A |
| Altitude | 30000 |
| Route | NURMO DCT CMB DCT VEKIN DCT ADUTO N873 FERDI/N0357F240 Y18 DENUT |
| Aircraft | A20N/M-SDE2E3FGHIRWXY/LB1 |
Departure
| Time | N/A |
|---|---|
| Airport | Paris-Orly Airport (LFPO) |
Arrival
| Time | 2026-05-03 20:29 |
|---|---|
| Airport | Amsterdam Airport Schiphol (EHAM) |
| Time | Latitude | Longitude | Altitude | Speed | Heading |
|---|---|---|---|---|---|
| 2026-05-03 20:15 | 52.41342 | 4.91727 | 6913 ft | 334 kts | 86° |
| 2026-05-03 20:15 | 52.41517 | 4.95524 | 6913 ft | 332 kts | 87° |
| 2026-05-03 20:15 | 52.41675 | 4.99223 | 6912 ft | 321 kts | 87° |
| 2026-05-03 20:15 | 52.41828 | 5.02814 | 6847 ft | 319 kts | 87° |
| 2026-05-03 20:16 | 52.41983 | 5.06484 | 6513 ft | 319 kts | 88° |
| 2026-05-03 20:16 | 52.42138 | 5.10105 | 6074 ft | 318 kts | 87° |
| 2026-05-03 20:16 | 52.42290 | 5.13720 | 5615 ft | 317 kts | 88° |
| 2026-05-03 20:16 | 52.42439 | 5.17313 | 5161 ft | 315 kts | 87° |
| 2026-05-03 20:17 | 52.42583 | 5.20861 | 4967 ft | 314 kts | 88° |
| 2026-05-03 20:17 | 52.42726 | 5.24445 | 4914 ft | 316 kts | 88° |
| 2026-05-03 20:17 | 52.42868 | 5.27979 | 4912 ft | 315 kts | 88° |
| 2026-05-03 20:17 | 52.43012 | 5.31603 | 4911 ft | 315 kts | 88° |
| 2026-05-03 20:18 | 52.43156 | 5.35240 | 4910 ft | 315 kts | 88° |
| 2026-05-03 20:18 | 52.43298 | 5.38815 | 4910 ft | 315 kts | 88° |
| 2026-05-03 20:18 | 52.43442 | 5.42399 | 4909 ft | 316 kts | 88° |
| 2026-05-03 20:18 | 52.43546 | 5.46032 | 4905 ft | 314 kts | 95° |
| 2026-05-03 20:19 | 52.43021 | 5.49382 | 4915 ft | 295 kts | 120° |
| 2026-05-03 20:19 | 52.41782 | 5.51844 | 4907 ft | 270 kts | 147° |
| 2026-05-03 20:19 | 52.40153 | 5.52983 | 4910 ft | 244 kts | 176° |
| 2026-05-03 20:19 | 52.38524 | 5.52715 | 4918 ft | 239 kts | 197° |
| 2026-05-03 20:20 | 52.36923 | 5.52020 | 4909 ft | 236 kts | 199° |
| 2026-05-03 20:20 | 52.35508 | 5.50774 | 4916 ft | 232 kts | 219° |
| 2026-05-03 20:20 | 52.34336 | 5.49029 | 4910 ft | 222 kts | 240° |
| 2026-05-03 20:20 | 52.34009 | 5.46636 | 4924 ft | 223 kts | 271° |
| 2026-05-03 20:21 | 52.34117 | 5.44150 | 4909 ft | 213 kts | 271° |
| 2026-05-03 20:21 | 52.34142 | 5.41825 | 4910 ft | 214 kts | 267° |
| 2026-05-03 20:21 | 52.34069 | 5.39380 | 4907 ft | 212 kts | 264° |
| 2026-05-03 20:21 | 52.33972 | 5.37012 | 4835 ft | 202 kts | 264° |
| 2026-05-03 20:22 | 52.33883 | 5.34774 | 4545 ft | 193 kts | 264° |
| 2026-05-03 20:22 | 52.33796 | 5.32601 | 4114 ft | 190 kts | 264° |
| 2026-05-03 20:22 | 52.33710 | 5.30416 | 4217 ft | 198 kts | 264° |
| 2026-05-03 20:22 | 52.33623 | 5.28199 | 4215 ft | 194 kts | 264° |
| 2026-05-03 20:23 | 52.33539 | 5.26024 | 4219 ft | 191 kts | 264° |
| 2026-05-03 20:23 | 52.33460 | 5.23948 | 3982 ft | 179 kts | 264° |
| 2026-05-03 20:23 | 52.33379 | 5.21891 | 3747 ft | 184 kts | 264° |
| 2026-05-03 20:23 | 52.33297 | 5.19754 | 3915 ft | 190 kts | 264° |
| 2026-05-03 20:24 | 52.33216 | 5.17611 | 3919 ft | 189 kts | 264° |
| 2026-05-03 20:24 | 52.33135 | 5.15474 | 3914 ft | 188 kts | 264° |
| 2026-05-03 20:24 | 52.33058 | 5.13406 | 3915 ft | 178 kts | 264° |
| 2026-05-03 20:24 | 52.32982 | 5.11393 | 3883 ft | 176 kts | 264° |
| 2026-05-03 20:25 | 52.32908 | 5.09414 | 3585 ft | 173 kts | 264° |
| 2026-05-03 20:25 | 52.32835 | 5.07453 | 3129 ft | 173 kts | 265° |
| 2026-05-03 20:25 | 52.32763 | 5.05502 | 2881 ft | 173 kts | 264° |
| 2026-05-03 20:25 | 52.32690 | 5.03544 | 2794 ft | 170 kts | 264° |
| 2026-05-03 20:26 | 52.32622 | 5.01650 | 2615 ft | 165 kts | 264° |
| 2026-05-03 20:26 | 52.32552 | 4.99774 | 2413 ft | 165 kts | 264° |
| 2026-05-03 20:26 | 52.32483 | 4.97857 | 2188 ft | 164 kts | 264° |
| 2026-05-03 20:26 | 52.32419 | 4.96053 | 1979 ft | 151 kts | 264° |
| 2026-05-03 20:27 | 52.32357 | 4.94371 | 1777 ft | 149 kts | 263° |
| 2026-05-03 20:27 | 52.32296 | 4.92670 | 1615 ft | 148 kts | 264° |
| 2026-05-03 20:27 | 52.32237 | 4.91016 | 1589 ft | 152 kts | 264° |
| 2026-05-03 20:27 | 52.32152 | 4.89189 | 1563 ft | 174 kts | 261° |
| 2026-05-03 20:28 | 52.32040 | 4.87177 | 1290 ft | 171 kts | 266° |
| 2026-05-03 20:28 | 52.31834 | 4.85366 | 959 ft | 153 kts | 259° |
| 2026-05-03 20:28 | 52.31918 | 4.83712 | 680 ft | 146 kts | 277° |
| 2026-05-03 20:28 | 52.31927 | 4.82063 | 456 ft | 143 kts | 266° |
| 2026-05-03 20:29 | 52.31879 | 4.80467 | 206 ft | 138 kts | 264° |
| 2026-05-03 20:29 | 52.31812 | 4.78908 | 4 ft | 139 kts | 265° |
| 2026-05-03 20:29 | 52.31775 | 4.77787 | -4 ft | 33 kts | 268° |
| 2026-05-03 20:29 | 52.31763 | 4.77470 | -3 ft | 29 kts | 268° |
| 2026-05-03 20:30 | 52.31754 | 4.77129 | -4 ft | 31 kts | 258° |
| 2026-05-03 20:30 | 52.31664 | 4.76821 | -4 ft | 26 kts | 237° |
| 2026-05-03 20:30 | 52.31566 | 4.76573 | -2 ft | 22 kts | 233° |
| 2026-05-03 20:30 | 52.31445 | 4.76508 | -2 ft | 15 kts | 130° |
| 2026-05-03 20:31 | 52.31464 | 4.76667 | -4 ft | 16 kts | 56° |
| 2026-05-03 20:31 | 52.31480 | 4.76879 | -6 ft | 22 kts | 86° |
| 2026-05-03 20:31 | 52.31485 | 4.77152 | -7 ft | 24 kts | 107° |
| 2026-05-03 20:31 | 52.31386 | 4.77343 | -5 ft | 23 kts | 130° |
| 2026-05-03 20:32 | 52.31253 | 4.77504 | -3 ft | 25 kts | 172° |
| 2026-05-03 20:32 | 52.31066 | 4.77488 | -4 ft | 28 kts | 183° |
| 2026-05-03 20:32 | 52.30885 | 4.77473 | -1 ft | 26 kts | 183° |
| 2026-05-03 20:32 | 52.30840 | 4.77454 | -2 ft | 3 kts | 242° |
| 2026-05-03 20:33 | 52.30843 | 4.77396 | -2 ft | 9 kts | 265° |
| 2026-05-03 20:33 | 52.30843 | 4.77257 | -2 ft | 15 kts | 275° |
| 2026-05-03 20:33 | 52.30893 | 4.77172 | -3 ft | 12 kts | 27° |
| 2026-05-03 20:33 | 52.30906 | 4.77179 | -3 ft | 0 kts | 358° |